Time;durP1;ratioP1;P1;durP2;ratioP2;P2;SDS_P1;SDS_P2;PMS_P1;PMS_P2;Temp;Humidity;BMP_temperature;BMP_pressure;BME280_temperature;BME280_humidity;BME280_pressure;Samples;Min_cycle;Max_cycle;Signal;HPM_P1;HPM_P2
2021/12/29 00:01:42;;;;;;;36.75;32.40;;;;;;;6.65;77.17;94260.94;5036527;28;20193;-65
2021/12/29 00:04:09;;;;;;;34.15;30.50;;;;;;;6.66;77.09;94253.53;5036402;28;20196;-65
2021/12/29 00:06:36;;;;;;;34.42;30.05;;;;;;;6.58;77.29;94258.00;5035989;28;20217;-65
2021/12/29 00:09:02;;;;;;;34.05;30.33;;;;;;;6.57;77.40;94266.53;5036531;28;20183;-65
2021/12/29 00:11:29;;;;;;;34.38;30.73;;;;;;;6.54;77.57;94261.78;5036540;28;20273;-65
2021/12/29 00:13:58;;;;;;;35.17;31.40;;;;;;;6.50;77.67;94267.94;5018992;28;20208;-65
2021/12/29 00:16:28;;;;;;;34.53;30.85;;;;;;;6.48;77.57;94256.53;5035827;28;20230;-65
2021/12/29 00:18:55;;;;;;;33.83;30.17;;;;;;;6.47;77.98;94243.19;5036063;28;20199;-65
2021/12/29 00:21:22;;;;;;;32.58;29.05;;;;;;;6.47;77.73;94243.19;5035825;28;20182;-65
2021/12/29 00:23:49;;;;;;;34.13;30.35;;;;;;;6.48;77.45;94242.84;5035671;28;20183;-65
2021/12/29 00:26:15;;;;;;;33.50;29.98;;;;;;;6.44;77.36;94244.69;5035951;28;20210;-65
2021/12/29 00:28:42;;;;;;;32.30;28.90;;;;;;;6.44;77.54;94241.16;5018893;28;20205;-65
2021/12/29 00:31:09;;;;;;;32.88;29.40;;;;;;;6.43;77.06;94250.50;5018240;28;20206;-65
2021/12/29 00:33:37;;;;;;;31.35;28.00;;;;;;;6.43;76.97;94253.25;5035528;28;20539;-65
2021/12/29 00:36:05;;;;;;;33.15;29.65;;;;;;;6.42;77.59;94251.63;5018604;28;20195;-65
2021/12/29 00:38:31;;;;;;;32.30;28.98;;;;;;;6.40;77.39;94248.47;5018357;28;20198;-65
2021/12/29 00:40:58;;;;;;;34.83;29.45;;;;;;;6.39;77.61;94252.31;5035401;28;20190;-65
2021/12/29 00:43:25;;;;;;;35.05;30.48;;;;;;;6.37;77.27;94243.66;5035956;28;20199;-65
2021/12/29 00:45:52;;;;;;;32.40;28.85;;;;;;;6.39;77.51;94241.38;5035394;28;20206;-65
2021/12/29 00:48:20;;;;;;;33.72;30.20;;;;;;;6.41;76.91;94247.31;5035218;28;20217;-65
2021/12/29 00:50:48;;;;;;;32.92;29.30;;;;;;;6.41;76.48;94250.03;5035256;28;20201;-65
2021/12/29 00:53:16;;;;;;;31.95;28.55;;;;;;;6.40;76.70;94252.00;5035225;28;20194;-65
2021/12/29 00:55:43;;;;;;;31.75;28.55;;;;;;;6.39;76.44;94246.84;5035512;28;20237;-65
2021/12/29 00:58:10;;;;;;;29.83;26.83;;;;;;;6.39;76.25;94244.09;5018231;28;20209;-65
2021/12/29 01:00:40;;;;;;;30.25;27.15;;;;;;;6.37;76.40;94241.72;5018139;28;20355;-65
2021/12/29 01:03:08;;;;;;;30.23;27.27;;;;;;;6.36;76.16;94236.59;5018247;28;20237;-65
2021/12/29 01:05:35;;;;;;;29.45;26.50;;;;;;;6.37;76.46;94240.94;5035282;28;20187;-65
2021/12/29 01:08:04;;;;;;;29.13;26.38;;;;;;;6.38;76.10;94231.56;5035288;28;20201;-65
2021/12/29 01:10:31;;;;;;;29.63;26.63;;;;;;;6.38;75.97;94237.84;5035838;28;20189;-65
2021/12/29 01:13:00;;;;;;;29.70;26.70;;;;;;;6.36;76.22;94239.34;5018374;28;20205;-65
2021/12/29 01:15:32;;;;;;;29.88;26.90;;;;;;;6.34;75.78;94236.94;5034940;28;20281;-65
2021/12/29 01:18:01;;;;;;;30.95;27.80;;;;;;;6.27;76.24;94229.31;5035055;28;20189;-65
2021/12/29 01:20:29;;;;;;;30.65;27.65;;;;;;;6.25;75.80;94220.66;5017438;28;20209;-65
2021/12/29 01:22:57;;;;;;;30.77;27.65;;;;;;;6.18;75.87;94217.69;5017976;28;20296;-65
2021/12/29 01:25:25;;;;;;;30.38;27.38;;;;;;;6.14;75.58;94224.22;5035170;28;20273;-65
2021/12/29 01:27:52;;;;;;;29.95;27.05;;;;;;;6.08;76.07;94218.16;5017888;28;20198;-66
2021/12/29 01:30:20;;;;;;;31.00;28.13;;;;;;;6.06;75.81;94225.13;5034954;28;20198;-66
2021/12/29 01:32:47;;;;;;;29.80;27.00;;;;;;;6.06;75.81;94212.22;5035102;28;20202;-66
2021/12/29 01:35:14;;;;;;;31.33;28.35;;;;;;;6.08;75.83;94212.69;5017433;28;20208;-66
2021/12/29 01:37:41;;;;;;;30.27;27.48;;;;;;;6.07;75.95;94216.59;5018116;28;20673;-65
2021/12/29 01:40:13;;;;;;;29.90;27.08;;;;;;;6.10;76.56;94210.41;5034908;28;20196;-66
2021/12/29 01:42:41;;;;;;;29.83;26.77;;;;;;;6.13;76.50;94208.91;5034832;28;20198;-66
2021/12/29 01:45:10;;;;;;;29.33;26.52;;;;;;;6.17;76.26;94204.34;5034982;28;20205;-66
2021/12/29 01:47:37;;;;;;;28.02;25.42;;;;;;;6.20;76.25;94204.44;5017224;28;20263;-66
2021/12/29 01:50:05;;;;;;;29.15;26.45;;;;;;;6.22;75.94;94187.69;5017424;28;20195;-65
2021/12/29 01:52:37;;;;;;;29.50;26.80;;;;;;;6.23;75.88;94198.28;5034822;28;20198;-65
2021/12/29 01:55:05;;;;;;;28.48;25.80;;;;;;;6.24;76.04;94194.38;5034755;28;20195;-65
2021/12/29 01:57:32;;;;;;;28.17;25.58;;;;;;;6.27;76.02;94182.75;5034974;28;20185;-65
2021/12/29 02:00:00;;;;;;;28.30;25.75;;;;;;;6.29;76.01;94176.94;5034691;28;20186;-65
2021/12/29 02:02:27;;;;;;;28.05;25.42;;;;;;;6.31;75.94;94177.38;5034812;28;20212;-65
2021/12/29 02:04:54;;;;;;;26.40;23.88;;;;;;;6.30;75.95;94166.78;5038716;28;20205;-65
2021/12/29 02:07:21;;;;;;;28.23;25.52;;;;;;;6.31;75.91;94163.69;5038285;28;20207;-65
2021/12/29 02:09:48;;;;;;;27.00;24.50;;;;;;;6.30;75.79;94167.56;5021338;28;20201;-65
2021/12/29 02:12:16;;;;;;;28.02;25.42;;;;;;;6.26;75.74;94162.00;5020971;28;20190;-65
2021/12/29 02:14:43;;;;;;;28.80;26.08;;;;;;;6.22;75.82;94150.13;5021493;28;20252;-65
2021/12/29 02:17:13;;;;;;;27.67;25.00;;;;;;;6.15;75.98;94140.94;5021018;28;20199;-65
2021/12/29 02:19:45;;;;;;;26.15;23.75;;;;;;;6.15;75.77;94141.72;5038560;28;20195;-66
2021/12/29 02:22:26;;;;;;;26.42;23.88;;;;;;;6.14;75.35;94133.88;5021076;28;20213;-65
2021/12/29 02:25:06;;;;;;;26.73;24.08;;;;;;;6.12;75.94;94139.69;5038192;28;20183;-65
2021/12/29 02:27:34;;;;;;;26.52;24.02;;;;;;;6.18;76.11;94138.28;5037902;28;20328;-65
2021/12/29 02:30:01;;;;;;;27.17;24.48;;;;;;;6.23;75.55;94137.25;5038145;28;20202;-66
2021/12/29 02:32:28;;;;;;;26.55;23.95;;;;;;;6.24;76.00;94134.16;5038223;28;20202;-65
2021/12/29 02:34:55;;;;;;;27.30;24.60;;;;;;;6.27;76.08;94136.19;5020810;28;20693;-65
2021/12/29 02:37:23;;;;;;;25.95;23.38;;;;;;;6.34;75.99;94132.84;5037999;28;20179;-65
2021/12/29 02:39:51;;;;;;;25.58;23.13;;;;;;;6.40;75.60;94136.94;5020760;28;20203;-65
2021/12/29 02:42:21;;;;;;;25.33;22.92;;;;;;;6.43;75.24;94136.25;5037975;28;20191;-66
2021/12/29 02:44:49;;;;;;;25.13;22.73;;;;;;;6.44;75.17;94128.84;5020882;28;20261;-65
2021/12/29 02:47:16;;;;;;;25.77;23.17;;;;;;;6.43;74.97;94130.78;5037844;28;20215;-65
2021/12/29 02:49:45;;;;;;;25.08;22.67;;;;;;;6.40;74.69;94131.47;5037570;28;20178;-65
2021/12/29 02:52:14;;;;;;;24.92;22.48;;;;;;;6.42;74.86;94126.44;5037498;28;20183;-65
2021/12/29 02:54:42;;;;;;;24.70;22.20;;;;;;;6.39;74.80;94124.41;5037374;28;20257;-65
2021/12/29 02:57:09;;;;;;;26.00;23.40;;;;;;;6.40;74.95;94127.94;5037744;28;20183;-65
2021/12/29 02:59:36;;;;;;;27.45;24.77;;;;;;;6.40;74.88;94125.19;5037432;28;20261;-65
2021/12/29 03:02:03;;;;;;;26.45;23.95;;;;;;;6.41;75.00;94126.78;5020500;28;20203;-65
2021/12/29 03:04:30;;;;;;;26.67;24.08;;;;;;;6.41;74.95;94124.06;5020378;28;20205;-65
2021/12/29 03:06:56;;;;;;;28.83;25.92;;;;;;;6.39;74.80;94127.16;5037399;28;20211;-65
2021/12/29 03:09:23;;;;;;;26.88;24.10;;;;;;;6.42;74.64;94129.16;5019840;28;20633;-65
2021/12/29 03:11:51;;;;;;;26.70;24.00;;;;;;;6.43;74.73;94128.03;5037419;28;20183;-65
2021/12/29 03:14:20;;;;;;;27.05;24.35;;;;;;;6.44;74.59;94142.53;5037079;28;20182;-65
2021/12/29 03:16:48;;;;;;;26.10;23.48;;;;;;;6.45;74.91;94119.47;5037426;28;20226;-66
2021/12/29 03:19:14;;;;;;;23.60;21.48;;;;;;;6.45;74.45;94123.00;5020221;28;20195;-66
2021/12/29 03:21:41;;;;;;;24.20;21.83;;;;;;;6.43;74.32;94119.03;5020044;28;20199;-65
2021/12/29 03:24:09;;;;;;;23.67;21.48;;;;;;;6.41;74.38;94110.34;5036852;28;20199;-65
2021/12/29 03:26:36;;;;;;;23.50;21.30;;;;;;;6.40;74.85;94106.03;5036924;28;20657;-65
2021/12/29 03:29:05;;;;;;;23.58;21.17;;;;;;;6.41;74.86;94107.63;5036912;28;20186;-65
2021/12/29 03:31:33;;;;;;;24.67;22.30;;;;;;;6.39;74.82;94109.91;5019669;28;20194;-65
2021/12/29 03:34:00;;;;;;;23.30;20.95;;;;;;;6.38;74.72;94106.38;5019627;28;20518;-65
2021/12/29 03:36:28;;;;;;;23.75;21.52;;;;;;;6.39;74.42;94101.69;5036593;28;20182;-65
2021/12/29 03:38:55;;;;;;;22.92;20.73;;;;;;;6.38;74.80;94106.38;5019311;28;20237;-65
2021/12/29 03:41:23;;;;;;;22.73;20.55;;;;;;;6.41;74.55;94102.94;5036815;28;20186;-65
2021/12/29 03:43:50;;;;;;;24.17;21.83;;;;;;;6.43;74.75;94097.13;5019576;28;20213;-65
2021/12/29 03:46:19;;;;;;;25.42;22.83;;;;;;;6.42;74.75;94090.81;5019349;28;20194;-65
2021/12/29 03:48:48;;;;;;;24.45;22.15;;;;;;;6.42;74.67;94092.75;5019907;28;20202;-65
2021/12/29 03:51:15;;;;;;;24.92;22.42;;;;;;;6.41;75.04;94083.75;5036707;28;20205;-65
2021/12/29 03:53:42;;;;;;;23.83;21.52;;;;;;;6.40;75.27;94092.34;5036616;28;20258;-65
2021/12/29 03:56:09;;;;;;;25.50;23.13;;;;;;;6.41;75.11;94088.44;5036277;28;20613;-65
2021/12/29 03:58:36;;;;;;;24.48;22.20;;;;;;;6.39;75.27;94091.53;5019301;28;20205;-65
2021/12/29 04:01:06;;;;;;;25.35;22.95;;;;;;;6.38;74.68;94083.66;5018907;28;20607;-65
2021/12/29 04:03:34;;;;;;;26.02;23.50;;;;;;;6.37;74.92;94082.88;5036441;28;20197;-65
2021/12/29 04:06:01;;;;;;;24.48;22.17;;;;;;;6.37;74.69;94082.88;5036369;28;20191;-65
2021/12/29 04:08:28;;;;;;;24.65;22.25;;;;;;;6.37;74.91;94082.88;5036285;28;20206;-65
2021/12/29 04:10:55;;;;;;;25.05;22.75;;;;;;;6.37;75.08;94090.28;5018727;28;20652;-65
2021/12/29 04:13:22;;;;;;;24.52;22.13;;;;;;;6.37;75.06;94090.28;5018967;28;20202;-65
2021/12/29 04:15:49;;;;;;;24.35;22.08;;;;;;;6.39;74.97;94085.25;5035999;28;20256;-65
2021/12/29 04:18:25;;;;;;;25.73;23.15;;;;;;;6.38;75.07;94086.41;5036103;28;20183;-65
2021/12/29 04:20:57;;;;;;;23.73;21.52;;;;;;;6.39;74.96;94077.03;5019051;28;20190;-65
2021/12/29 04:23:25;;;;;;;24.58;22.17;;;;;;;6.41;74.80;94080.22;5036150;28;20194;-65
2021/12/29 04:25:54;;;;;;;23.33;21.13;;;;;;;6.43;74.91;94086.16;5035198;28;20192;-65
2021/12/29 04:28:23;;;;;;;24.45;22.10;;;;;;;6.43;74.86;94078.75;5018492;28;20301;-65
2021/12/29 04:30:51;;;;;;;23.45;21.25;;;;;;;6.42;74.96;94084.56;5018204;28;20199;-65
2021/12/29 04:33:18;;;;;;;22.52;20.42;;;;;;;6.40;74.62;94076.69;5035565;28;20182;-65
2021/12/29 04:35:46;;;;;;;22.85;20.65;;;;;;;6.41;74.74;94086.50;5035793;28;20193;-65
2021/12/29 04:38:14;;;;;;;24.55;22.05;;;;;;;6.42;74.91;94084.56;5035671;28;20195;-65
2021/12/29 04:40:42;;;;;;;22.73;20.55;;;;;;;6.42;74.85;94090.03;5035836;28;20196;-66
2021/12/29 04:43:08;;;;;;;23.60;21.40;;;;;;;6.45;75.10;94095.59;5035372;28;20622;-66
2021/12/29 04:45:35;;;;;;;24.25;21.92;;;;;;;6.49;75.10;94099.22;5035657;28;20205;-66
2021/12/29 04:48:10;;;;;;;25.35;22.95;;;;;;;6.52;74.81;94095.00;5017909;28;20671;-66
2021/12/29 04:50:38;;;;;;;24.55;22.35;;;;;;;6.52;74.61;94100.47;5017977;28;20205;-66
2021/12/29 04:53:07;;;;;;;24.30;21.98;;;;;;;6.54;74.30;94100.16;5018273;28;20198;-65
2021/12/29 04:55:36;;;;;;;22.42;20.40;;;;;;;6.54;74.36;94102.88;5018420;28;20213;-65
2021/12/29 04:58:04;;;;;;;21.73;19.73;;;;;;;6.53;74.43;94099.31;5018404;28;20198;-65
2021/12/29 05:00:32;;;;;;;20.90;19.00;;;;;;;6.53;74.40;94098.53;5018083;28;20206;-65
2021/12/29 05:02:59;;;;;;;19.95;18.05;;;;;;;6.52;74.52;94100.47;5035387;28;20602;-66
2021/12/29 05:05:40;;;;;;;22.13;19.83;;;;;;;6.53;74.57;94096.59;5017813;28;20249;-66
2021/12/29 05:10:54;;;;;;;21.70;19.40;;;;;;;6.59;74.90;94095.19;5017674;28;20344;-65
2021/12/29 05:13:21;;;;;;;21.88;19.58;;;;;;;6.61;74.99;94103.06;5035583;28;20190;-66
2021/12/29 05:15:48;;;;;;;21.17;19.08;;;;;;;6.63;75.09;94107.03;5017470;28;20609;-66
2021/12/29 05:18:15;;;;;;;22.23;20.23;;;;;;;6.65;75.13;94103.97;5035188;28;20185;-66
2021/12/29 05:20:42;;;;;;;20.55;18.52;;;;;;;6.69;75.12;94107.59;5017775;28;20202;-67
2021/12/29 05:23:10;;;;;;;21.42;19.33;;;;;;;6.72;75.25;94110.44;5018230;28;20213;-65
2021/12/29 05:25:37;;;;;;;22.70;20.60;;;;;;;6.76;74.86;94110.53;5017860;28;20194;-65
2021/12/29 05:28:05;;;;;;;22.65;20.45;;;;;;;6.77;74.64;94108.56;5035062;28;20217;-65
2021/12/29 05:30:32;;;;;;;22.63;20.30;;;;;;;6.79;75.11;94109.00;5035324;28;20182;-66
2021/12/29 05:32:59;;;;;;;21.88;19.70;;;;;;;6.79;74.77;94098.03;5035038;28;20520;-65
2021/12/29 05:35:26;;;;;;;22.75;20.52;;;;;;;6.73;75.11;94103.00;5034829;28;20193;-66
2021/12/29 05:37:52;;;;;;;22.40;20.30;;;;;;;6.69;75.41;94102.09;5035766;28;20198;-66
2021/12/29 05:40:19;;;;;;;24.08;21.80;;;;;;;6.66;75.35;94106.34;5039007;28;20195;-65
2021/12/29 05:42:46;;;;;;;24.90;22.50;;;;;;;6.64;75.82;94108.63;5022084;28;20205;-64
2021/12/29 05:45:15;;;;;;;25.42;23.02;;;;;;;6.59;75.40;94108.88;5021831;28;20209;-64
2021/12/29 05:47:42;;;;;;;24.52;22.23;;;;;;;6.57;75.80;94096.69;5021772;28;20218;-64
2021/12/29 05:50:12;;;;;;;27.38;24.85;;;;;;;6.59;75.89;94106.16;5039137;28;20186;-64
2021/12/29 05:52:39;;;;;;;32.40;29.30;;;;;;;6.57;75.96;94108.44;5022097;28;20202;-64
2021/12/29 05:55:07;;;;;;;30.13;27.10;;;;;;;6.57;76.24;94115.84;5038796;28;20228;-64
2021/12/29 05:57:34;;;;;;;32.17;28.80;;;;;;;6.57;76.19;94105.69;5038927;28;20179;-64
2021/12/29 06:00:02;;;;;;;30.73;27.48;;;;;;;6.61;76.01;94112.09;5038804;28;20182;-65
2021/12/29 06:02:30;;;;;;;35.10;31.23;;;;;;;6.70;76.05;94112.72;5038738;28;20191;-65
2021/12/29 06:04:57;;;;;;;29.52;26.35;;;;;;;6.70;75.85;94104.50;5021470;28;20194;-64
2021/12/29 06:07:24;;;;;;;33.53;30.03;;;;;;;6.72;75.77;94101.41;5037730;28;20449;-65
2021/12/29 06:09:51;;;;;;;36.60;32.83;;;;;;;6.68;75.64;94117.75;5038256;28;20183;-64
2021/12/29 06:12:18;;;;;;;39.97;35.83;;;;;;;6.67;75.92;94109.88;5021263;28;20190;-65
2021/12/29 06:14:45;;;;;;;42.47;38.53;;;;;;;6.70;76.04;94107.22;5021347;28;20205;-65
2021/12/29 06:17:11;;;;;;;38.70;35.20;;;;;;;6.68;76.22;94109.53;5021456;28;20557;-65
2021/12/29 06:19:40;;;;;;;35.83;32.58;;;;;;;6.64;76.19;94116.06;5021254;28;20203;-65
2021/12/29 06:22:09;;;;;;;35.67;32.38;;;;;;;6.66;75.97;94119.25;5038283;28;20289;-65
2021/12/29 06:24:36;;;;;;;39.97;36.03;;;;;;;6.68;75.98;94120.50;5038017;28;20626;-63
2021/12/29 06:27:03;;;;;;;44.03;39.53;;;;;;;6.72;76.02;94124.13;5021310;28;20195;-64
2021/12/29 06:29:29;;;;;;;48.17;43.38;;;;;;;6.72;75.50;94129.59;5021100;28;20198;-65
2021/12/29 06:31:56;;;;;;;44.60;40.10;;;;;;;6.74;75.93;94131.97;5038223;28;20202;-65
2021/12/29 06:34:23;;;;;;;38.20;34.35;;;;;;;6.77;75.62;94134.03;5038198;28;20202;-63
2021/12/29 06:36:51;;;;;;;40.35;36.28;;;;;;;6.81;75.99;94139.59;5021158;28;20550;-63
2021/12/29 06:39:18;;;;;;;38.13;34.35;;;;;;;6.86;75.99;94140.16;5021076;28;20194;-64
2021/12/29 06:41:45;;;;;;;34.50;31.10;;;;;;;6.89;75.65;94139.44;5037783;28;20202;-61
2021/12/29 06:44:12;;;;;;;33.70;30.40;;;;;;;6.92;75.75;94133.25;5020459;28;20259;-63
2021/12/29 06:46:39;;;;;;;32.67;29.58;;;;;;;6.96;76.04;94136.88;5037702;28;20182;-65
2021/12/29 06:49:06;;;;;;;33.95;30.63;;;;;;;7.03;75.94;94144.50;5020273;28;20214;-66
2021/12/29 06:51:33;;;;;;;34.63;31.08;;;;;;;7.09;75.83;94139.56;5020490;28;20198;-64
2021/12/29 06:54:01;;;;;;;33.30;29.98;;;;;;;7.14;75.45;94144.75;5020541;28;20206;-63
2021/12/29 06:56:28;;;;;;;34.63;31.25;;;;;;;7.17;75.08;94146.78;5020245;28;20190;-63
2021/12/29 06:58:54;;;;;;;31.73;28.60;;;;;;;7.19;75.35;94150.78;5020546;28;20191;-62
2021/12/29 07:01:21;;;;;;;28.92;26.02;;;;;;;7.23;75.54;94148.13;5037601;28;20187;-64
2021/12/29 07:03:48;;;;;;;29.58;26.58;;;;;;;7.23;75.44;94137.97;5037588;28;20187;-64
2021/12/29 07:06:15;;;;;;;28.80;25.95;;;;;;;7.23;75.06;94143.44;5020169;28;20197;-63
2021/12/29 07:08:42;;;;;;;28.80;25.88;;;;;;;7.27;75.01;94156.44;5037438;28;20214;-63
2021/12/29 07:11:10;;;;;;;28.95;25.98;;;;;;;7.28;75.01;94156.09;5037544;28;20197;-64
2021/12/29 07:13:37;;;;;;;35.63;32.13;;;;;;;7.29;74.71;94152.19;5037156;28;20210;-68
2021/12/29 07:16:04;;;;;;;34.80;31.23;;;;;;;7.30;75.04;94150.22;5037255;28;20226;-64
2021/12/29 07:18:30;;;;;;;34.83;31.30;;;;;;;7.31;74.90;94163.63;5037152;28;20187;-63
2021/12/29 07:20:57;;;;;;;34.50;31.00;;;;;;;7.32;75.23;94161.66;5019795;28;20206;-63
2021/12/29 07:23:24;;;;;;;37.40;33.60;;;;;;;7.30;75.70;94155.72;5037111;28;20607;-64
2021/12/29 07:25:51;;;;;;;39.28;35.47;;;;;;;7.29;75.92;94167.84;5020085;28;20213;-63
2021/12/29 07:28:31;;;;;;;36.88;33.30;;;;;;;7.29;76.30;94162.38;5019657;28;20643;-64
2021/12/29 07:30:58;;;;;;;34.67;31.27;;;;;;;7.30;76.04;94163.94;5037423;28;20182;-63
2021/12/29 07:33:25;;;;;;;33.67;30.27;;;;;;;7.29;76.03;94160.41;5037501;28;20194;-63
2021/12/29 07:35:52;;;;;;;31.42;28.33;;;;;;;7.26;76.42;94154.84;5036970;28;20610;-63
2021/12/29 07:38:18;;;;;;;32.90;29.58;;;;;;;7.26;76.54;94165.81;5036806;28;20613;-63
2021/12/29 07:40:45;;;;;;;31.52;28.48;;;;;;;7.27;76.79;94162.72;5037287;28;20209;-63
2021/12/29 07:43:12;;;;;;;29.60;26.63;;;;;;;7.27;77.11;94161.94;5036839;28;20625;-63
2021/12/29 07:45:42;;;;;;;31.33;28.05;;;;;;;7.27;77.13;94153.72;5037105;28;20186;-64
2021/12/29 07:48:09;;;;;;;31.40;28.23;;;;;;;7.27;76.92;94161.94;5036817;28;20214;-64
2021/12/29 07:50:37;;;;;;;32.42;29.15;;;;;;;7.26;76.80;94161.13;5036417;28;20513;-64
2021/12/29 07:53:04;;;;;;;30.95;27.58;;;;;;;7.27;76.91;94159.19;5019478;28;20198;-67
2021/12/29 07:55:31;;;;;;;31.20;28.00;;;;;;;7.26;77.19;94161.13;5037061;28;20194;-63
2021/12/29 07:57:58;;;;;;;29.25;26.15;;;;;;;7.29;77.17;94156.88;5037159;28;20614;-63
2021/12/29 08:00:26;;;;;;;30.70;27.65;;;;;;;7.30;77.30;94162.03;5018445;28;20569;-64
2021/12/29 08:02:54;;;;;;;29.63;26.38;;;;;;;7.29;77.54;94162.38;5036941;28;20182;-63
2021/12/29 08:05:22;;;;;;;30.55;27.25;;;;;;;7.24;77.71;94160.69;5019300;28;20205;-64
2021/12/29 08:07:49;;;;;;;32.22;26.70;;;;;;;7.20;78.21;94151.59;5019125;28;20197;-64
2021/12/29 08:10:16;;;;;;;30.83;27.25;;;;;;;7.19;78.12;94160.97;5035917;28;20209;-63
2021/12/29 08:12:43;;;;;;;29.38;26.38;;;;;;;7.20;78.35;94162.56;5019293;28;20206;-64
2021/12/29 08:15:11;;;;;;;30.67;26.75;;;;;;;7.23;78.34;94167.34;5018541;28;20244;-63
2021/12/29 08:17:39;;;;;;;31.88;28.48;;;;;;;7.25;78.12;94165.03;5035975;28;20183;-63
2021/12/29 08:20:09;;;;;;;30.73;27.50;;;;;;;7.24;78.43;94161.47;5036067;28;20182;-63
2021/12/29 08:22:36;;;;;;;30.05;26.77;;;;;;;7.25;78.61;94167.75;5036367;28;20197;-64
2021/12/29 08:25:03;;;;;;;41.83;37.72;;;;;;;7.27;78.81;94161.94;5035783;28;20179;-63
2021/12/29 08:27:29;;;;;;;32.25;28.95;;;;;;;7.26;78.89;94158.38;5035995;28;20200;-63
2021/12/29 08:29:56;;;;;;;35.58;31.88;;;;;;;7.24;78.65;94158.75;5018669;28;20218;-63
2021/12/29 08:32:23;;;;;;;32.92;29.42;;;;;;;7.24;78.80;94160.69;5035842;28;20187;-63
2021/12/29 08:34:50;;;;;;;32.78;29.25;;;;;;;7.25;78.37;94159.53;5018793;28;20193;-63
2021/12/29 08:37:18;;;;;;;31.02;27.75;;;;;;;7.25;78.43;94156.78;5035976;28;20193;-67
2021/12/29 08:39:45;;;;;;;31.77;28.48;;;;;;;7.27;78.60;94161.94;5036240;28;20191;-63
2021/12/29 08:42:12;;;;;;;31.75;28.35;;;;;;;7.31;78.81;94154.59;5035430;28;20299;-63
2021/12/29 08:44:39;;;;;;;30.95;27.75;;;;;;;7.35;78.62;94153.53;5035971;28;20187;-63
2021/12/29 08:47:08;;;;;;;30.95;27.67;;;;;;;7.36;78.52;94157.84;5018712;28;20203;-63
2021/12/29 08:49:35;;;;;;;31.67;28.48;;;;;;;7.39;78.70;94159.09;5017881;28;20650;-63
2021/12/29 08:52:02;;;;;;;30.25;27.05;;;;;;;7.43;78.68;94151.75;5018158;28;20221;-64
2021/12/29 08:54:30;;;;;;;33.20;29.67;;;;;;;7.45;78.67;94153.00;5018389;28;20214;-64
2021/12/29 08:56:57;;;;;;;34.28;30.80;;;;;;;7.48;78.22;94155.03;5018119;28;20212;-63
2021/12/29 08:59:24;;;;;;;35.10;31.48;;;;;;;7.52;78.05;94151.59;5035473;28;20209;-64
2021/12/29 09:01:51;;;;;;;34.65;31.17;;;;;;;7.51;78.13;94150.75;5035555;28;20209;-64
2021/12/29 09:04:18;;;;;;;35.85;32.15;;;;;;;7.55;78.01;94153.59;5035653;28;20187;-64
2021/12/29 09:06:44;;;;;;;34.88;31.38;;;;;;;7.57;78.34;94141.09;5018366;28;20202;-69
2021/12/29 09:09:11;;;;;;;38.40;34.63;;;;;;;7.61;78.47;94138.44;5035081;28;20203;-64
2021/12/29 09:11:39;;;;;;;37.60;33.80;;;;;;;7.63;78.33;94136.94;5017734;28;20614;-64
2021/12/29 09:14:07;;;;;;;39.72;35.50;;;;;;;7.66;78.03;94133.50;5035596;28;20190;-65
2021/12/29 09:16:34;;;;;;;35.83;32.05;;;;;;;7.69;78.11;94127.28;5018065;28;20234;-68
2021/12/29 09:19:01;;;;;;;36.28;32.50;;;;;;;7.72;78.11;94128.50;5018324;28;20202;-67
2021/12/29 09:21:28;;;;;;;38.85;34.85;;;;;;;7.77;78.37;94120.03;5018358;28;20206;-67
2021/12/29 09:23:55;;;;;;;38.58;34.33;;;;;;;7.79;78.02;94122.38;5035138;28;20236;-62
2021/12/29 09:26:22;;;;;;;36.08;32.13;;;;;;;7.81;77.86;94117.34;5017693;28;20206;-63
2021/12/29 09:28:50;;;;;;;34.42;30.70;;;;;;;7.86;77.69;94114.31;5035173;28;20210;-62
2021/12/29 09:31:19;;;;;;;37.45;33.35;;;;;;;7.85;77.34;94112.72;5035015;28;20198;-61
2021/12/29 09:33:46;;;;;;;38.08;34.00;;;;;;;7.84;77.50;94105.63;5034895;28;20225;-62
2021/12/29 09:36:14;;;;;;;36.33;32.53;;;;;;;7.86;77.76;94100.59;5035146;28;20202;-62
2021/12/29 09:38:41;;;;;;;35.60;31.83;;;;;;;7.87;77.24;94099.44;5017354;28;20614;-62
2021/12/29 09:41:09;;;;;;;34.58;31.08;;;;;;;7.87;77.64;94097.47;5017917;28;20194;-62
2021/12/29 09:43:36;;;;;;;34.60;31.13;;;;;;;7.89;77.41;94100.66;5035026;28;20182;-61
2021/12/29 09:46:06;;;;;;;34.08;30.50;;;;;;;7.94;77.22;94102.31;5034840;28;20201;-62
2021/12/29 09:48:33;;;;;;;37.75;33.88;;;;;;;7.96;77.30;94097.28;5035331;28;20271;-62
2021/12/29 09:51:00;;;;;;;37.63;33.63;;;;;;;7.95;76.88;94095.66;5018300;28;20202;-62
2021/12/29 09:53:27;;;;;;;38.17;34.28;;;;;;;7.96;77.60;94091.78;5034865;28;20197;-63
2021/12/29 09:55:54;;;;;;;37.60;33.60;;;;;;;7.99;77.86;94093.81;5017293;28;20198;-62
2021/12/29 09:58:21;;;;;;;38.72;34.63;;;;;;;8.01;77.80;94091.50;5034658;28;20193;-61
2021/12/29 10:00:54;;;;;;;42.58;38.15;;;;;;;8.03;77.70;94091.16;5035146;28;20186;-64
2021/12/29 10:03:24;;;;;;;44.83;39.92;;;;;;;8.06;77.67;94087.66;5018048;28;20198;-64
2021/12/29 10:05:53;;;;;;;44.60;39.85;;;;;;;8.07;78.12;94079.06;5035168;28;20191;-65
2021/12/29 10:08:24;;;;;;;47.78;42.58;;;;;;;8.08;78.28;94088.09;5034660;28;20191;-63
2021/12/29 10:10:52;;;;;;;49.95;44.63;;;;;;;8.08;78.25;94077.13;5017198;28;20205;-63
2021/12/29 10:13:19;;;;;;;49.95;44.63;;;;;;;8.11;77.94;94074.44;5017703;28;20206;-63
2021/12/29 10:15:48;;;;;;;48.15;43.05;;;;;;;8.12;77.42;94067.78;5034615;28;20646;-63
2021/12/29 10:18:17;;;;;;;49.00;43.45;;;;;;;8.12;77.54;94064.25;5017344;28;20198;-63
2021/12/29 10:20:51;;;;;;;50.30;45.00;;;;;;;8.14;78.24;94067.44;5017494;28;20199;-64
2021/12/29 10:23:22;;;;;;;54.15;48.25;;;;;;;8.15;78.13;94066.28;5017616;28;20194;-64
2021/12/29 10:25:49;;;;;;;58.63;52.53;;;;;;;8.18;77.92;94060.88;5020338;28;20293;-63
2021/12/29 10:28:21;;;;;;;60.60;54.20;;;;;;;8.21;77.87;94070.34;5037832;28;20585;-63
2021/12/29 10:30:55;;;;;;;58.63;52.40;;;;;;;8.22;77.85;94054.66;5038219;28;20194;-63
2021/12/29 10:33:22;;;;;;;57.28;51.05;;;;;;;8.25;77.84;94054.72;5039026;28;20187;-67
2021/12/29 10:35:50;;;;;;;54.15;48.40;;;;;;;8.27;78.02;94046.88;5020934;28;20313;-65
2021/12/29 10:38:20;;;;;;;53.92;48.25;;;;;;;8.29;77.64;94052.03;5037936;28;20194;-63
2021/12/29 10:40:48;;;;;;;55.22;48.22;;;;;;;8.27;77.75;94049.63;5020937;28;20198;-64
2021/12/29 10:43:15;;;;;;;50.97;44.83;;;;;;;8.26;78.04;94041.78;5038216;28;20182;-63
2021/12/29 10:45:46;;;;;;;50.05;43.67;;;;;;;8.25;77.65;94049.22;5038169;28;20197;-64
2021/12/29 10:48:21;;;;;;;49.67;43.25;;;;;;;8.28;78.29;94044.94;5037914;28;20187;-67
2021/12/29 10:51:01;;;;;;;46.05;41.08;;;;;;;8.27;78.23;94038.66;5021041;28;20244;-65
2021/12/29 10:53:29;;;;;;;42.13;33.05;;;;;;;8.33;78.30;94047.41;5020235;28;20634;-64
2021/12/29 10:55:56;;;;;;;45.88;39.22;;;;;;;8.34;77.85;94041.53;5021043;28;20198;-64
2021/12/29 10:58:24;;;;;;;46.55;41.00;;;;;;;8.34;77.97;94041.53;5020475;28;20622;-64
2021/12/29 11:00:59;;;;;;;47.13;41.33;;;;;;;8.31;77.35;94044.22;5020475;28;20205;-64
2021/12/29 11:03:28;;;;;;;48.58;41.58;;;;;;;8.33;77.66;94033.66;5020507;28;20201;-64
2021/12/29 11:05:59;;;;;;;47.03;42.03;;;;;;;8.33;78.26;94033.66;5037868;28;20213;-64
2021/12/29 11:08:28;;;;;;;44.75;39.13;;;;;;;8.35;77.97;94029.41;5020436;28;20272;-64
2021/12/29 11:10:56;;;;;;;45.40;40.50;;;;;;;8.35;77.58;94029.41;5020284;28;20229;-64
2021/12/29 11:13:27;;;;;;;45.38;40.40;;;;;;;8.36;77.70;94030.19;5037050;28;20206;-64
2021/12/29 11:15:55;;;;;;;46.38;40.95;;;;;;;8.40;77.29;94022.84;5019845;28;20242;-63
2021/12/29 11:18:22;;;;;;;46.50;41.42;;;;;;;8.47;77.10;94028.47;5020279;28;20233;-64
2021/12/29 11:20:53;;;;;;;43.88;38.08;;;;;;;8.48;77.27;94016.31;5019552;28;20633;-65
2021/12/29 11:23:21;;;;;;;44.40;39.60;;;;;;;8.50;77.30;94018.72;5037520;28;20191;-63
2021/12/29 11:25:51;;;;;;;44.47;39.78;;;;;;;8.51;77.47;94012.84;5037156;28;20209;-65
2021/12/29 11:28:23;;;;;;;46.22;41.22;;;;;;;8.54;77.15;94009.38;5037383;28;20190;-64
2021/12/29 11:30:50;;;;;;;44.25;38.88;;;;;;;8.56;77.35;94003.50;5019601;28;20225;-64